createdAt,value
2022-07-27T00:07:55.916Z,16.00
2022-07-27T00:18:01.062Z,15.87
2022-07-27T00:28:04.403Z,15.71
2022-07-27T00:38:08.413Z,15.42
2022-07-27T00:48:11.033Z,15.36
2022-07-27T00:58:15.514Z,15.21
2022-07-27T01:08:18.228Z,15.02
2022-07-27T01:18:30.981Z,14.91
2022-07-27T01:28:35.039Z,14.72
2022-07-27T01:38:37.657Z,14.56
2022-07-27T01:48:41.808Z,14.41
2022-07-27T01:58:45.173Z,14.30
2022-07-27T02:08:49.231Z,14.13
2022-07-27T02:18:52.002Z,14.19
2022-07-27T02:28:56.003Z,14.32
2022-07-27T02:38:59.424Z,14.39
2022-07-27T02:49:03.418Z,14.38
2022-07-27T02:59:06.138Z,14.32
2022-07-27T03:09:10.636Z,14.26
2022-07-27T03:19:13.965Z,14.22
2022-07-27T03:29:18.280Z,14.23
2022-07-27T03:39:20.955Z,14.32
2022-07-27T03:49:24.976Z,14.34
2022-07-27T03:59:27.726Z,14.22
2022-07-27T04:09:31.708Z,14.15
2022-07-27T04:19:34.718Z,14.22
2022-07-27T04:29:38.689Z,14.20
2022-07-27T04:39:41.403Z,14.17
2022-07-27T04:49:45.411Z,14.26
2022-07-27T04:59:48.204Z,14.34
2022-07-27T05:09:52.977Z,14.45
2022-07-27T05:19:55.744Z,14.66
2022-07-27T05:29:59.803Z,14.75
2022-07-27T05:40:02.510Z,14.96
2022-07-27T05:50:07.442Z,15.30
2022-07-27T06:00:12.043Z,15.68
2022-07-27T06:10:16.480Z,15.71
2022-07-27T06:20:20.001Z,15.65
2022-07-27T06:30:23.997Z,15.51
2022-07-27T06:40:29.756Z,16.04
2022-07-27T06:50:34.132Z,16.28
2022-07-27T07:00:37.238Z,16.49
2022-07-27T07:10:42.510Z,16.79
2022-07-27T07:20:45.157Z,17.22
2022-07-27T07:30:49.293Z,17.50
2022-07-27T07:40:51.966Z,17.87
2022-07-27T07:50:56.149Z,18.07
2022-07-27T08:00:58.815Z,18.12
2022-07-27T08:11:02.782Z,18.41
2022-07-27T08:21:05.438Z,17.90
2022-07-27T08:31:14.464Z,17.58
2022-07-27T08:41:22.348Z,18.08
2022-07-27T08:51:26.707Z,18.74
2022-07-27T09:01:32.236Z,18.66
2022-07-27T09:11:37.216Z,18.85
2022-07-27T09:21:40.089Z,19.77
2022-07-27T09:31:46.138Z,20.40
2022-07-27T09:41:50.982Z,19.54
2022-07-27T09:52:00.103Z,20.28
2022-07-27T10:02:03.917Z,20.57
2022-07-27T10:12:08.900Z,19.89
2022-07-27T10:22:11.560Z,20.79
2022-07-27T10:32:24.538Z,20.63
2022-07-27T10:42:29.883Z,20.89
2022-07-27T10:52:44.825Z,21.32
2022-07-27T11:02:47.674Z,21.58
2022-07-27T11:12:54.656Z,21.74
2022-07-27T11:23:50.098Z,21.79
2022-07-27T11:33:23.327Z,22.22
2022-07-27T11:43:34.103Z,28.57
2022-07-27T11:53:40.862Z,28.88
2022-07-27T12:03:46.135Z,28.13
2022-07-27T12:13:58.485Z,31.89
2022-07-27T12:24:01.361Z,34.11
2022-07-27T12:34:07.608Z,24.72
2022-07-27T12:44:11.956Z,29.03
2022-07-27T12:54:15.993Z,30.95
2022-07-27T13:04:18.753Z,30.95
2022-07-27T13:14:22.760Z,25.77
2022-07-27T13:24:25.487Z,24.26
2022-07-27T13:34:29.592Z,23.25
2022-07-27T13:44:59.488Z,22.56
2022-07-27T13:54:56.310Z,22.78
2022-07-27T14:04:58.932Z,22.20
2022-07-27T14:15:02.920Z,22.91
2022-07-27T14:25:06.376Z,22.08
2022-07-27T14:35:12.697Z,21.47
2022-07-27T14:45:15.359Z,21.57
2022-07-27T14:55:19.581Z,21.58
2022-07-27T15:05:22.225Z,21.32
2022-07-27T15:15:26.765Z,21.44
2022-07-27T15:25:29.516Z,21.63
2022-07-27T15:35:33.727Z,21.30
2022-07-27T15:45:38.601Z,21.60
2022-07-27T15:55:43.305Z,21.66
2022-07-27T16:05:47.494Z,20.88
2022-07-27T16:16:09.334Z,21.29
2022-07-27T16:26:12.059Z,20.87
2022-07-27T16:36:17.048Z,20.59
2022-07-27T16:46:19.807Z,20.60
2022-07-27T16:56:23.886Z,20.60
2022-07-27T17:06:27.211Z,20.13
2022-07-27T17:16:31.314Z,19.50
2022-07-27T17:26:34.139Z,19.38
2022-07-27T17:36:38.172Z,19.55
2022-07-27T17:46:40.911Z,19.54
2022-07-27T17:56:44.951Z,19.43
2022-07-27T18:06:47.648Z,19.39
2022-07-27T18:16:51.615Z,18.46
2022-07-27T18:26:59.287Z,18.00
2022-07-27T18:37:03.294Z,17.80
2022-07-27T18:47:06.114Z,17.75
2022-07-27T18:57:11.220Z,17.69
2022-07-27T19:07:15.785Z,17.24
2022-07-27T19:17:20.466Z,16.94
2022-07-27T19:27:23.997Z,16.63
2022-07-27T19:37:30.927Z,16.47
2022-07-27T19:47:34.107Z,16.32
2022-07-27T19:57:38.152Z,16.26
2022-07-27T20:07:41.529Z,16.41
2022-07-27T20:17:45.492Z,16.35
2022-07-27T20:27:48.441Z,16.18
2022-07-27T20:37:52.453Z,15.96
2022-07-27T20:47:55.704Z,15.65
2022-07-27T20:58:00.029Z,15.25
2022-07-27T21:08:02.795Z,14.97
2022-07-27T21:18:07.000Z,14.85
2022-07-27T21:28:09.670Z,14.85
2022-07-27T21:38:15.588Z,14.82
2022-07-27T21:48:18.236Z,14.51
2022-07-27T21:58:22.193Z,14.38
2022-07-27T22:08:24.797Z,14.45
2022-07-27T22:18:29.704Z,14.88
2022-07-27T22:28:32.487Z,15.04
2022-07-27T22:38:36.491Z,14.96
2022-07-27T22:48:39.241Z,14.57
2022-07-27T22:58:43.270Z,14.22
2022-07-27T23:08:45.870Z,13.97
2022-07-27T23:18:49.898Z,13.82
2022-07-27T23:28:52.542Z,13.70
2022-07-27T23:38:56.563Z,13.50
2022-07-27T23:48:59.211Z,13.36
2022-07-27T23:59:03.249Z,13.35
